KTCS/TCS METAR and TAF weather

Enter ICAO airport designator
Station Type Date Time Source
KTCS METAR 2021/10/20 05:53 UTC NOAA

KTCS 200553Z AUTO 31009KT 10SM CLR 14/M01 A3013 RMK AO2 SLP141 T01441011 10239 20144 51017 $


Station Type Date Time Source
KTCS Decoded METAR 2021/10/20 05:53 UTC NOAA

TRUTH OR CONSEQUENCES MUNI, NM, United States (KTCS) 33-14N 107-16W 1469M
Oct 20, 2021 - 01:53 AM EDT / 2021.10.20 0553 UTC
Wind: from the NW (310 degrees) at 10 MPH (9 KT):0
Visibility: 10 mile(s):0
Sky conditions: clear
Temperature: 57.9 F (14.4 C)
Dew Point: 30.0 F (-1.1 C)
Relative Humidity: 34%
Pressure (altimeter): 30.13 in. Hg (1020 hPa)
Pressure tendency: 0.05 inches (1.7 hPa) higher than three hours ago
ob: KTCS 200553Z AUTO 31009KT 10SM CLR 14/M01 A3013 RMK AO2 SLP141 T01441011 10239 20144 51017
cycle: 6

Station Type Date Time Source
KTCS TAF 2021/10/20 06:22 UTC NOAA

TAF KTCS 200520Z 2006/2106 31007KT P6SM SKC
FM201600 17007KT P6SM SKC

Example: see airport list